sensor_id;sensor_type;location;lat;lon;timestamp;pressure;altitude;pressure_sealevel;temperature;humidity
72050;BME280;59916;50.914;5.888;2022-07-29T00:01:17;100704.78;;;22.70;47.77
72050;BME280;59916;50.914;5.888;2022-07-29T00:03:43;100701.28;;;22.70;47.86
72050;BME280;59916;50.914;5.888;2022-07-29T00:06:08;100697.13;;;22.67;48.05
72050;BME280;59916;50.914;5.888;2022-07-29T00:08:33;100692.63;;;22.68;47.94
72050;BME280;59916;50.914;5.888;2022-07-29T00:10:59;100692.47;;;22.69;48.01
72050;BME280;59916;50.914;5.888;2022-07-29T00:13:25;100684.97;;;22.65;47.85
72050;BME280;59916;50.914;5.888;2022-07-29T00:15:50;100691.66;;;22.69;47.84
72050;BME280;59916;50.914;5.888;2022-07-29T00:18:16;100690.28;;;22.65;47.92
72050;BME280;59916;50.914;5.888;2022-07-29T00:20:45;100701.28;;;22.70;47.81
72050;BME280;59916;50.914;5.888;2022-07-29T00:23:10;100705.78;;;22.69;47.96
72050;BME280;59916;50.914;5.888;2022-07-29T00:25:36;100699.78;;;22.67;47.69
72050;BME280;59916;50.914;5.888;2022-07-29T00:28:01;100710.94;;;22.71;47.99
72050;BME280;59916;50.914;5.888;2022-07-29T00:30:27;100706.13;;;22.66;47.99
72050;BME280;59916;50.914;5.888;2022-07-29T00:32:53;100712.94;;;22.69;47.84
72050;BME280;59916;50.914;5.888;2022-07-29T00:35:19;100703.59;;;22.65;48.13
72050;BME280;59916;50.914;5.888;2022-07-29T00:38:03;100704.44;;;22.65;47.99
72050;BME280;59916;50.914;5.888;2022-07-29T00:40:29;100707.44;;;22.70;47.80
72050;BME280;59916;50.914;5.888;2022-07-29T00:42:54;100698.63;;;22.70;47.71
72050;BME280;59916;50.914;5.888;2022-07-29T00:45:20;100686.97;;;22.63;47.91
72050;BME280;59916;50.914;5.888;2022-07-29T00:47:47;100684.44;;;22.61;47.97
72050;BME280;59916;50.914;5.888;2022-07-29T00:50:13;100679.13;;;22.61;47.76
72050;BME280;59916;50.914;5.888;2022-07-29T00:52:39;100692.31;;;22.71;47.92
72050;BME280;59916;50.914;5.888;2022-07-29T00:55:08;100687.97;;;22.70;47.86
72050;BME280;59916;50.914;5.888;2022-07-29T00:57:35;100676.97;;;22.65;47.72
72050;BME280;59916;50.914;5.888;2022-07-29T01:00:00;100672.50;;;22.65;48.06
72050;BME280;59916;50.914;5.888;2022-07-29T01:02:26;100673.00;;;22.69;47.75
72050;BME280;59916;50.914;5.888;2022-07-29T01:04:52;100665.34;;;22.66;47.79
72050;BME280;59916;50.914;5.888;2022-07-29T01:07:18;100660.50;;;22.61;47.55
72050;BME280;59916;50.914;5.888;2022-07-29T01:09:45;100674.66;;;22.70;48.10
72050;BME280;59916;50.914;5.888;2022-07-29T01:12:16;100675.69;;;22.69;47.63
72050;BME280;59916;50.914;5.888;2022-07-29T01:14:42;100667.16;;;22.65;47.96
72050;BME280;59916;50.914;5.888;2022-07-29T01:17:21;100661.53;;;22.68;47.89
72050;BME280;59916;50.914;5.888;2022-07-29T01:22:25;100658.34;;;22.65;48.00
72050;BME280;59916;50.914;5.888;2022-07-29T01:25:19;100666.69;;;22.70;47.80
72050;BME280;59916;50.914;5.888;2022-07-29T01:30:13;100657.19;;;22.67;48.04
72050;BME280;59916;50.914;5.888;2022-07-29T01:32:40;100662.38;;;22.69;47.51
72050;BME280;59916;50.914;5.888;2022-07-29T01:35:18;100661.84;;;22.65;47.81
72050;BME280;59916;50.914;5.888;2022-07-29T01:38:01;100665.88;;;22.69;47.65
72050;BME280;59916;50.914;5.888;2022-07-29T01:40:40;100655.38;;;22.68;48.07
72050;BME280;59916;50.914;5.888;2022-07-29T01:43:11;100653.72;;;22.67;47.83
72050;BME280;59916;50.914;5.888;2022-07-29T01:45:43;100653.03;;;22.65;48.13
72050;BME280;59916;50.914;5.888;2022-07-29T01:48:16;100650.22;;;22.66;47.87
72050;BME280;59916;50.914;5.888;2022-07-29T01:51:18;100656.19;;;22.68;47.82
72050;BME280;59916;50.914;5.888;2022-07-29T01:53:57;100655.38;;;22.68;47.87
72050;BME280;59916;50.914;5.888;2022-07-29T01:56:27;100651.19;;;22.65;47.84
72050;BME280;59916;50.914;5.888;2022-07-29T01:58:55;100648.41;;;22.67;47.80
72050;BME280;59916;50.914;5.888;2022-07-29T02:01:22;100649.19;;;22.67;47.81
72050;BME280;59916;50.914;5.888;2022-07-29T02:03:49;100643.88;;;22.67;48.05
72050;BME280;59916;50.914;5.888;2022-07-29T02:06:19;100650.03;;;22.68;48.17
72050;BME280;59916;50.914;5.888;2022-07-29T02:08:46;100649.56;;;22.64;47.96
72050;BME280;59916;50.914;5.888;2022-07-29T02:11:12;100644.38;;;22.63;47.87
72050;BME280;59916;50.914;5.888;2022-07-29T02:13:38;100655.53;;;22.66;47.95
72050;BME280;59916;50.914;5.888;2022-07-29T02:16:06;100651.19;;;22.65;48.10
72050;BME280;59916;50.914;5.888;2022-07-29T02:18:33;100647.69;;;22.65;47.93
72050;BME280;59916;50.914;5.888;2022-07-29T02:20:59;100641.03;;;22.61;47.91
72050;BME280;59916;50.914;5.888;2022-07-29T02:23:26;100657.38;;;22.66;47.99
72050;BME280;59916;50.914;5.888;2022-07-29T02:25:53;100659.03;;;22.67;48.00
72050;BME280;59916;50.914;5.888;2022-07-29T02:28:21;100644.84;;;22.58;48.04
72050;BME280;59916;50.914;5.888;2022-07-29T02:30:48;100671.66;;;22.65;47.94
72050;BME280;59916;50.914;5.888;2022-07-29T02:33:17;100675.81;;;22.67;47.65
72050;BME280;59916;50.914;5.888;2022-07-29T02:35:44;100680.34;;;22.67;48.11
72050;BME280;59916;50.914;5.888;2022-07-29T02:38:13;100678.84;;;22.64;47.85
72050;BME280;59916;50.914;5.888;2022-07-29T02:41:01;100661.69;;;22.67;48.14
72050;BME280;59916;50.914;5.888;2022-07-29T02:43:29;100663.00;;;22.63;47.94
72050;BME280;59916;50.914;5.888;2022-07-29T02:45:56;100667.03;;;22.67;48.03
72050;BME280;59916;50.914;5.888;2022-07-29T02:48:31;100660.50;;;22.61;48.07
72050;BME280;59916;50.914;5.888;2022-07-29T02:51:06;100659.66;;;22.61;48.01
72050;BME280;59916;50.914;5.888;2022-07-29T02:53:33;100671.00;;;22.63;47.88
72050;BME280;59916;50.914;5.888;2022-07-29T02:56:07;100675.16;;;22.65;47.92
72050;BME280;59916;50.914;5.888;2022-07-29T02:58:46;100668.34;;;22.63;47.95
72050;BME280;59916;50.914;5.888;2022-07-29T03:01:19;100664.00;;;22.62;48.38
72050;BME280;59916;50.914;5.888;2022-07-29T03:03:46;100672.34;;;22.67;48.10
72050;BME280;59916;50.914;5.888;2022-07-29T03:06:13;100671.50;;;22.66;48.14
72050;BME280;59916;50.914;5.888;2022-07-29T03:08:40;100663.84;;;22.63;48.23
72050;BME280;59916;50.914;5.888;2022-07-29T03:11:07;100672.50;;;22.65;48.39
72050;BME280;59916;50.914;5.888;2022-07-29T03:13:34;100660.63;;;22.60;48.11
72050;BME280;59916;50.914;5.888;2022-07-29T03:16:00;100673.78;;;22.61;48.23
72050;BME280;59916;50.914;5.888;2022-07-29T03:18:26;100671.00;;;22.63;48.28
72050;BME280;59916;50.914;5.888;2022-07-29T03:20:52;100661.47;;;22.60;48.21
72050;BME280;59916;50.914;5.888;2022-07-29T03:23:19;100666.19;;;22.66;48.37
72050;BME280;59916;50.914;5.888;2022-07-29T03:25:45;100659.78;;;22.59;48.01
72050;BME280;59916;50.914;5.888;2022-07-29T03:28:10;100680.47;;;22.65;48.21
72050;BME280;59916;50.914;5.888;2022-07-29T03:30:36;100668.63;;;22.60;48.53
72050;BME280;59916;50.914;5.888;2022-07-29T03:33:01;100667.50;;;22.62;48.33
72050;BME280;59916;50.914;5.888;2022-07-29T03:35:26;100672.66;;;22.64;48.38
72050;BME280;59916;50.914;5.888;2022-07-29T03:37:52;100668.94;;;22.57;48.35
72050;BME280;59916;50.914;5.888;2022-07-29T03:43:08;100683.13;;;22.65;48.68
72050;BME280;59916;50.914;5.888;2022-07-29T03:45:35;100679.50;;;22.66;48.71
72050;BME280;59916;50.914;5.888;2022-07-29T03:48:08;100673.66;;;22.63;48.59
72050;BME280;59916;50.914;5.888;2022-07-29T03:50:34;100675.34;;;22.64;48.78
72050;BME280;59916;50.914;5.888;2022-07-29T03:53:01;100669.16;;;22.63;48.90
72050;BME280;59916;50.914;5.888;2022-07-29T03:55:28;100662.44;;;22.59;48.69
72050;BME280;59916;50.914;5.888;2022-07-29T03:57:56;100660.34;;;22.63;48.68
72050;BME280;59916;50.914;5.888;2022-07-29T04:00:24;100667.34;;;22.64;49.00
72050;BME280;59916;50.914;5.888;2022-07-29T04:02:49;100665.81;;;22.61;48.79
72050;BME280;59916;50.914;5.888;2022-07-29T04:05:18;100652.81;;;22.58;49.13
72050;BME280;59916;50.914;5.888;2022-07-29T04:07:47;100675.34;;;22.64;49.12
72050;BME280;59916;50.914;5.888;2022-07-29T04:10:14;100655.63;;;22.57;48.93
72050;BME280;59916;50.914;5.888;2022-07-29T04:12:40;100664.69;;;22.64;49.00
72050;BME280;59916;50.914;5.888;2022-07-29T04:15:06;100662.16;;;22.62;49.36
72050;BME280;59916;50.914;5.888;2022-07-29T04:17:32;100675.47;;;22.62;49.14
72050;BME280;59916;50.914;5.888;2022-07-29T04:19:57;100676.47;;;22.61;49.22
72050;BME280;59916;50.914;5.888;2022-07-29T04:22:22;100675.28;;;22.56;49.30
72050;BME280;59916;50.914;5.888;2022-07-29T04:24:48;100683.75;;;22.59;49.99
72050;BME280;59916;50.914;5.888;2022-07-29T04:27:13;100680.41;;;22.57;49.95
72050;BME280;59916;50.914;5.888;2022-07-29T04:29:38;100686.97;;;22.63;50.43
72050;BME280;59916;50.914;5.888;2022-07-29T04:32:04;100654.13;;;22.46;50.00
72050;BME280;59916;50.914;5.888;2022-07-29T04:34:29;100664.09;;;22.52;50.32
72050;BME280;59916;50.914;5.888;2022-07-29T04:36:55;100655.28;;;22.52;50.15
72050;BME280;59916;50.914;5.888;2022-07-29T04:39:20;100665.47;;;22.56;50.39
72050;BME280;59916;50.914;5.888;2022-07-29T04:41:46;100662.28;;;22.53;50.72
72050;BME280;59916;50.914;5.888;2022-07-29T04:44:12;100680.09;;;22.60;50.63
72050;BME280;59916;50.914;5.888;2022-07-29T04:46:38;100678.59;;;22.58;50.75
72050;BME280;59916;50.914;5.888;2022-07-29T04:49:03;100670.63;;;22.58;50.55
72050;BME280;59916;50.914;5.888;2022-07-29T04:51:28;100671.47;;;22.58;50.16
72050;BME280;59916;50.914;5.888;2022-07-29T04:53:54;100664.97;;;22.61;50.62
72050;BME280;59916;50.914;5.888;2022-07-29T04:56:19;100657.97;;;22.60;50.55
72050;BME280;59916;50.914;5.888;2022-07-29T04:58:45;100666.78;;;22.60;50.54
72050;BME280;59916;50.914;5.888;2022-07-29T05:01:10;100663.78;;;22.55;50.48
72050;BME280;59916;50.914;5.888;2022-07-29T05:03:36;100654.13;;;22.54;50.51
72050;BME280;59916;50.914;5.888;2022-07-29T05:06:01;100643.13;;;22.49;50.33
72050;BME280;59916;50.914;5.888;2022-07-29T05:08:26;100666.13;;;22.58;50.32
72050;BME280;59916;50.914;5.888;2022-07-29T05:10:52;100655.28;;;22.52;50.43
72050;BME280;59916;50.914;5.888;2022-07-29T05:13:17;100657.63;;;22.55;50.49
72050;BME280;59916;50.914;5.888;2022-07-29T05:15:42;100673.78;;;22.61;50.45
72050;BME280;59916;50.914;5.888;2022-07-29T05:18:08;100661.97;;;22.56;50.74
72050;BME280;59916;50.914;5.888;2022-07-29T05:20:33;100674.25;;;22.57;50.56
72050;BME280;59916;50.914;5.888;2022-07-29T05:23:00;100672.63;;;22.56;50.43
72050;BME280;59916;50.914;5.888;2022-07-29T05:25:27;100681.94;;;22.60;50.54
72050;BME280;59916;50.914;5.888;2022-07-29T05:27:53;100689.06;;;22.59;50.11
72050;BME280;59916;50.914;5.888;2022-07-29T05:30:19;100695.22;;;22.60;50.29
72050;BME280;59916;50.914;5.888;2022-07-29T05:32:44;100691.91;;;22.58;50.23
72050;BME280;59916;50.914;5.888;2022-07-29T05:35:10;100689.25;;;22.58;50.46
72050;BME280;59916;50.914;5.888;2022-07-29T05:37:36;100685.25;;;22.54;50.44
72050;BME280;59916;50.914;5.888;2022-07-29T05:40:02;100702.38;;;22.59;50.57
72050;BME280;59916;50.914;5.888;2022-07-29T05:42:28;100702.56;;;22.58;50.57
72050;BME280;59916;50.914;5.888;2022-07-29T05:44:54;100692.53;;;22.52;50.52
72050;BME280;59916;50.914;5.888;2022-07-29T05:47:20;100690.41;;;22.55;50.42
72050;BME280;59916;50.914;5.888;2022-07-29T05:49:45;100690.91;;;22.51;50.68
72050;BME280;59916;50.914;5.888;2022-07-29T05:52:11;100684.72;;;22.50;50.44
72050;BME280;59916;50.914;5.888;2022-07-29T05:54:36;100687.06;;;22.53;50.35
72050;BME280;59916;50.914;5.888;2022-07-29T05:57:02;100696.38;;;22.57;50.43
72050;BME280;59916;50.914;5.888;2022-07-29T05:59:28;100703.72;;;22.55;50.43
72050;BME280;59916;50.914;5.888;2022-07-29T06:01:54;100707.88;;;22.58;50.24
72050;BME280;59916;50.914;5.888;2022-07-29T06:04:19;100697.38;;;22.48;50.38
72050;BME280;59916;50.914;5.888;2022-07-29T06:06:44;100710.84;;;22.55;50.65
72050;BME280;59916;50.914;5.888;2022-07-29T06:09:10;100718.50;;;22.58;50.54
72050;BME280;59916;50.914;5.888;2022-07-29T06:11:35;100722.84;;;22.59;50.81
72050;BME280;59916;50.914;5.888;2022-07-29T06:14:01;100709.34;;;22.52;50.84
72050;BME280;59916;50.914;5.888;2022-07-29T06:16:28;100718.50;;;22.58;50.61
72050;BME280;59916;50.914;5.888;2022-07-29T06:18:53;100713.50;;;22.55;50.92
72050;BME280;59916;50.914;5.888;2022-07-29T06:21:18;100699.84;;;22.50;50.84
72050;BME280;59916;50.914;5.888;2022-07-29T06:23:44;100710.53;;;22.58;50.70
72050;BME280;59916;50.914;5.888;2022-07-29T06:26:10;100710.72;;;22.56;50.29
72050;BME280;59916;50.914;5.888;2022-07-29T06:28:35;100718.84;;;22.55;50.64
72050;BME280;59916;50.914;5.888;2022-07-29T06:31:01;100724.81;;;22.57;50.71
72050;BME280;59916;50.914;5.888;2022-07-29T06:33:26;100728.31;;;22.57;50.67
72050;BME280;59916;50.914;5.888;2022-07-29T06:35:52;100729.16;;;22.58;50.53
72050;BME280;59916;50.914;5.888;2022-07-29T06:38:17;100734.47;;;22.58;50.61
72050;BME280;59916;50.914;5.888;2022-07-29T06:40:46;100730.50;;;22.54;50.52
72050;BME280;59916;50.914;5.888;2022-07-29T06:43:39;100742.00;;;22.62;50.39
72050;BME280;59916;50.914;5.888;2022-07-29T06:46:09;100741.69;;;22.65;50.14
72050;BME280;59916;50.914;5.888;2022-07-29T06:48:35;100733.88;;;22.64;49.90
72050;BME280;59916;50.914;5.888;2022-07-29T06:51:05;100738.72;;;22.68;49.97
72050;BME280;59916;50.914;5.888;2022-07-29T06:53:31;100730.91;;;22.67;50.21
72050;BME280;59916;50.914;5.888;2022-07-29T06:55:57;100741.91;;;22.72;50.35
72050;BME280;59916;50.914;5.888;2022-07-29T06:58:24;100732.41;;;22.69;50.56
72050;BME280;59916;50.914;5.888;2022-07-29T07:00:50;100739.91;;;22.74;50.24
72050;BME280;59916;50.914;5.888;2022-07-29T07:03:17;100737.25;;;22.74;50.37
72050;BME280;59916;50.914;5.888;2022-07-29T07:05:42;100734.91;;;22.71;50.58
72050;BME280;59916;50.914;5.888;2022-07-29T07:08:08;100744.06;;;22.76;50.33
72050;BME280;59916;50.914;5.888;2022-07-29T07:10:33;100750.38;;;22.75;50.80
72050;BME280;59916;50.914;5.888;2022-07-29T07:12:59;100741.56;;;22.75;50.63
72050;BME280;59916;50.914;5.888;2022-07-29T07:15:25;100739.25;;;22.72;50.63
72050;BME280;59916;50.914;5.888;2022-07-29T07:17:50;100743.91;;;22.78;50.62
72050;BME280;59916;50.914;5.888;2022-07-29T07:20:16;100746.56;;;22.78;50.69
72050;BME280;59916;50.914;5.888;2022-07-29T07:22:42;100729.75;;;22.69;50.52
72050;BME280;59916;50.914;5.888;2022-07-29T07:25:07;100753.56;;;22.79;50.60
72050;BME280;59916;50.914;5.888;2022-07-29T07:27:34;100761.22;;;22.82;50.81
72050;BME280;59916;50.914;5.888;2022-07-29T07:29:59;100755.56;;;22.77;50.52
72050;BME280;59916;50.914;5.888;2022-07-29T07:32:24;100768.69;;;22.78;50.38
72050;BME280;59916;50.914;5.888;2022-07-29T07:34:50;100776.53;;;22.80;50.20
72050;BME280;59916;50.914;5.888;2022-07-29T07:37:15;100769.84;;;22.76;50.26
72050;BME280;59916;50.914;5.888;2022-07-29T07:39:41;100773.84;;;22.72;51.17
72050;BME280;59916;50.914;5.888;2022-07-29T07:42:06;100772.13;;;22.63;52.05
72050;BME280;59916;50.914;5.888;2022-07-29T07:44:32;100780.94;;;22.63;52.74
72050;BME280;59916;50.914;5.888;2022-07-29T07:46:57;100777.91;;;22.58;53.45
72050;BME280;59916;50.914;5.888;2022-07-29T07:49:23;100771.06;;;22.56;53.49
72050;BME280;59916;50.914;5.888;2022-07-29T07:51:48;100779.06;;;22.56;53.85
72050;BME280;59916;50.914;5.888;2022-07-29T07:54:14;100763.41;;;22.53;54.54
72050;BME280;59916;50.914;5.888;2022-07-29T07:56:39;100767.88;;;22.52;54.81
72050;BME280;59916;50.914;5.888;2022-07-29T07:59:04;100766.06;;;22.53;54.67
72050;BME280;59916;50.914;5.888;2022-07-29T08:01:30;100767.88;;;22.52;54.67
72050;BME280;59916;50.914;5.888;2022-07-29T08:03:55;100755.44;;;22.53;54.57
72050;BME280;59916;50.914;5.888;2022-07-29T08:06:20;100771.22;;;22.54;54.58
72050;BME280;59916;50.914;5.888;2022-07-29T08:08:45;100780.72;;;22.57;54.26
72050;BME280;59916;50.914;5.888;2022-07-29T08:11:11;100770.41;;;22.54;54.18
72050;BME280;59916;50.914;5.888;2022-07-29T08:13:37;100779.38;;;22.53;53.82
72050;BME280;59916;50.914;5.888;2022-07-29T08:16:02;100777.88;;;22.50;53.77
72050;BME280;59916;50.914;5.888;2022-07-29T08:18:39;100784.38;;;22.56;53.73
72050;BME280;59916;50.914;5.888;2022-07-29T08:21:05;100779.91;;;22.56;53.90
72050;BME280;59916;50.914;5.888;2022-07-29T08:23:31;100780.72;;;22.57;53.77
72050;BME280;59916;50.914;5.888;2022-07-29T08:26:05;100780.72;;;22.57;53.66
72050;BME280;59916;50.914;5.888;2022-07-29T08:28:30;100789.72;;;22.56;53.57
72050;BME280;59916;50.914;5.888;2022-07-29T08:30:56;100789.84;;;22.54;53.70
72050;BME280;59916;50.914;5.888;2022-07-29T08:33:21;100797.69;;;22.56;53.63
72050;BME280;59916;50.914;5.888;2022-07-29T08:35:46;100797.03;;;22.54;53.29
72050;BME280;59916;50.914;5.888;2022-07-29T08:38:12;100801.66;;;22.52;53.16
72050;BME280;59916;50.914;5.888;2022-07-29T08:40:37;100798.19;;;22.51;52.98
72050;BME280;59916;50.914;5.888;2022-07-29T08:43:07;100785.38;;;22.55;52.86
72050;BME280;59916;50.914;5.888;2022-07-29T08:48:07;100796.63;;;22.41;53.18
72050;BME280;59916;50.914;5.888;2022-07-29T08:50:35;100799.72;;;22.36;53.97
72050;BME280;59916;50.914;5.888;2022-07-29T08:53:02;100800.06;;;22.33;54.06
72050;BME280;59916;50.914;5.888;2022-07-29T08:55:28;100799.06;;;22.34;54.52
72050;BME280;59916;50.914;5.888;2022-07-29T08:57:53;100787.44;;;22.35;55.31
72050;BME280;59916;50.914;5.888;2022-07-29T09:00:20;100786.91;;;22.32;55.49
72050;BME280;59916;50.914;5.888;2022-07-29T09:02:50;100783.94;;;22.35;55.70
72050;BME280;59916;50.914;5.888;2022-07-29T09:05:17;100799.41;;;22.39;55.67
72050;BME280;59916;50.914;5.888;2022-07-29T09:07:43;100805.06;;;22.36;55.98
72050;BME280;59916;50.914;5.888;2022-07-29T09:10:09;100806.91;;;22.36;56.11
72050;BME280;59916;50.914;5.888;2022-07-29T09:12:35;100805.22;;;22.35;56.28
72050;BME280;59916;50.914;5.888;2022-07-29T09:15:00;100806.19;;;22.34;55.99
72050;BME280;59916;50.914;5.888;2022-07-29T09:17:45;100803.53;;;22.34;56.15
72050;BME280;59916;50.914;5.888;2022-07-29T09:20:15;100805.53;;;22.32;55.67
72050;BME280;59916;50.914;5.888;2022-07-29T09:22:40;100804.03;;;22.29;55.67
72050;BME280;59916;50.914;5.888;2022-07-29T09:25:06;100808.19;;;22.32;55.80
72050;BME280;59916;50.914;5.888;2022-07-29T09:27:32;100804.03;;;22.29;55.97
72050;BME280;59916;50.914;5.888;2022-07-29T09:32:29;100811.88;;;22.31;55.86
72050;BME280;59916;50.914;5.888;2022-07-29T09:35:14;100810.84;;;22.32;55.75
72050;BME280;59916;50.914;5.888;2022-07-29T09:37:40;100815.34;;;22.31;55.95
72050;BME280;59916;50.914;5.888;2022-07-29T09:40:31;100818.84;;;22.32;55.96
72050;BME280;59916;50.914;5.888;2022-07-29T09:42:56;100819.47;;;22.26;55.90
72050;BME280;59916;50.914;5.888;2022-07-29T09:45:30;100827.97;;;22.29;55.77
72050;BME280;59916;50.914;5.888;2022-07-29T09:47:56;100828.97;;;22.28;55.91
72050;BME280;59916;50.914;5.888;2022-07-29T09:50:36;100824.63;;;22.27;55.60
72050;BME280;59916;50.914;5.888;2022-07-29T09:53:01;100827.47;;;22.26;55.80
72050;BME280;59916;50.914;5.888;2022-07-29T09:55:27;100837.09;;;22.27;55.18
72050;BME280;59916;50.914;5.888;2022-07-29T09:57:52;100832.25;;;22.22;55.32
72050;BME280;59916;50.914;5.888;2022-07-29T10:00:19;100823.44;;;22.21;55.39
72050;BME280;59916;50.914;5.888;2022-07-29T10:02:46;100828.75;;;22.21;55.48
72050;BME280;59916;50.914;5.888;2022-07-29T10:05:23;100835.75;;;22.22;55.47
72050;BME280;59916;50.914;5.888;2022-07-29T10:07:51;100838.25;;;22.24;55.53
72050;BME280;59916;50.914;5.888;2022-07-29T10:10:27;100834.59;;;22.25;55.11
72050;BME280;59916;50.914;5.888;2022-07-29T10:15:22;100824.09;;;22.23;55.31
72050;BME280;59916;50.914;5.888;2022-07-29T10:17:49;100819.09;;;22.20;55.54
72050;BME280;59916;50.914;5.888;2022-07-29T10:20:15;100835.81;;;22.31;55.39
72050;BME280;59916;50.914;5.888;2022-07-29T10:22:40;100829.47;;;22.32;55.16
72050;BME280;59916;50.914;5.888;2022-07-29T10:25:07;100824.31;;;22.30;55.17
72050;BME280;59916;50.914;5.888;2022-07-29T10:27:35;100824.81;;;22.34;54.92
72050;BME280;59916;50.914;5.888;2022-07-29T10:30:01;100820.22;;;22.36;55.22
72050;BME280;59916;50.914;5.888;2022-07-29T10:38:43;100821.38;;;22.41;54.56
72050;BME280;59916;50.914;5.888;2022-07-29T10:43:55;100828.38;;;22.42;54.16
72050;BME280;59916;50.914;5.888;2022-07-29T10:46:22;100823.91;;;22.43;54.04
72050;BME280;59916;50.914;5.888;2022-07-29T10:49:10;100826.56;;;22.43;53.06
72050;BME280;59916;50.914;5.888;2022-07-29T10:52:07;100827.41;;;22.43;53.49
72050;BME280;59916;50.914;5.888;2022-07-29T10:59:49;100837.03;;;22.44;52.25
72050;BME280;59916;50.914;5.888;2022-07-29T11:07:27;100836.72;;;22.47;51.92
72050;BME280;59916;50.914;5.888;2022-07-29T11:15:07;100834.06;;;22.47;52.03
72050;BME280;59916;50.914;5.888;2022-07-29T11:22:58;100832.25;;;22.48;52.30
72050;BME280;59916;50.914;5.888;2022-07-29T11:25:23;100827.75;;;22.48;52.38
72050;BME280;59916;50.914;5.888;2022-07-29T11:27:49;100822.25;;;22.50;52.28
72050;BME280;59916;50.914;5.888;2022-07-29T11:30:16;100820.94;;;22.46;52.40
72050;BME280;59916;50.914;5.888;2022-07-29T11:32:42;100823.28;;;22.49;52.08
72050;BME280;59916;50.914;5.888;2022-07-29T11:35:17;100825.09;;;22.48;52.30
72050;BME280;59916;50.914;5.888;2022-07-29T11:40:29;100828.44;;;22.50;52.20
72050;BME280;59916;50.914;5.888;2022-07-29T11:42:54;100817.13;;;22.48;52.02
72050;BME280;59916;50.914;5.888;2022-07-29T11:45:21;100823.78;;;22.52;52.29
72050;BME280;59916;50.914;5.888;2022-07-29T11:47:48;100824.63;;;22.53;52.39
72050;BME280;59916;50.914;5.888;2022-07-29T11:50:28;100823.94;;;22.51;52.07
72050;BME280;59916;50.914;5.888;2022-07-29T11:52:53;100820.63;;;22.49;52.09
72050;BME280;59916;50.914;5.888;2022-07-29T11:55:22;100822.94;;;22.52;51.81
72050;BME280;59916;50.914;5.888;2022-07-29T11:57:55;100828.13;;;22.53;51.93
72050;BME280;59916;50.914;5.888;2022-07-29T12:00:27;100823.63;;;22.54;52.04
72050;BME280;59916;50.914;5.888;2022-07-29T12:02:54;100827.94;;;22.55;51.87
72050;BME280;59916;50.914;5.888;2022-07-29T12:05:20;100826.59;;;22.51;51.93
72050;BME280;59916;50.914;5.888;2022-07-29T12:07:47;100835.94;;;22.55;51.76
72050;BME280;59916;50.914;5.888;2022-07-29T12:10:13;100822.94;;;22.52;51.68
72050;BME280;59916;50.914;5.888;2022-07-29T12:12:38;100830.59;;;22.55;51.74
72050;BME280;59916;50.914;5.888;2022-07-29T12:15:24;100825.28;;;22.55;51.73
72050;BME280;59916;50.914;5.888;2022-07-29T12:17:51;100828.25;;;22.52;51.53
72050;BME280;59916;50.914;5.888;2022-07-29T12:20:25;100815.78;;;22.52;51.11
72050;BME280;59916;50.914;5.888;2022-07-29T12:22:51;100828.78;;;22.55;51.38
72050;BME280;59916;50.914;5.888;2022-07-29T12:25:19;100816.47;;;22.54;51.30
72050;BME280;59916;50.914;5.888;2022-07-29T12:27:44;100814.81;;;22.53;51.51
72050;BME280;59916;50.914;5.888;2022-07-29T12:30:12;100818.97;;;22.56;51.29
72050;BME280;59916;50.914;5.888;2022-07-29T12:32:46;100811.97;;;22.55;51.71
72050;BME280;59916;50.914;5.888;2022-07-29T12:35:14;100812.81;;;22.55;51.90
72050;BME280;59916;50.914;5.888;2022-07-29T12:37:42;100819.97;;;22.55;51.76
72050;BME280;59916;50.914;5.888;2022-07-29T12:40:10;100809.19;;;22.56;51.71
72050;BME280;59916;50.914;5.888;2022-07-29T12:42:36;100809.97;;;22.57;51.95
72050;BME280;59916;50.914;5.888;2022-07-29T12:45:03;100816.00;;;22.59;51.85
72050;BME280;59916;50.914;5.888;2022-07-29T12:47:28;100808.69;;;22.61;51.93
72050;BME280;59916;50.914;5.888;2022-07-29T12:50:12;100803.38;;;22.61;52.20
72050;BME280;59916;50.914;5.888;2022-07-29T12:52:39;100806.72;;;22.63;52.18
72050;BME280;59916;50.914;5.888;2022-07-29T12:55:05;100802.25;;;22.63;52.06
72050;BME280;59916;50.914;5.888;2022-07-29T12:57:31;100798.59;;;22.64;52.12
72050;BME280;59916;50.914;5.888;2022-07-29T13:02:28;100793.56;;;22.61;52.13
72050;BME280;59916;50.914;5.888;2022-07-29T13:04:58;100795.78;;;22.66;52.28
72050;BME280;59916;50.914;5.888;2022-07-29T13:07:26;100799.28;;;22.66;52.21
72050;BME280;59916;50.914;5.888;2022-07-29T13:09:52;100797.44;;;22.67;52.19
72050;BME280;59916;50.914;5.888;2022-07-29T13:12:18;100793.28;;;22.64;52.18
72050;BME280;59916;50.914;5.888;2022-07-29T13:14:46;100800.78;;;22.69;52.26
72050;BME280;59916;50.914;5.888;2022-07-29T13:17:22;100799.09;;;22.68;52.41
72050;BME280;59916;50.914;5.888;2022-07-29T13:19:50;100806.94;;;22.69;52.23
72050;BME280;59916;50.914;5.888;2022-07-29T13:22:20;100805.25;;;22.68;52.21
72050;BME280;59916;50.914;5.888;2022-07-29T13:27:19;100797.81;;;22.72;52.20
72050;BME280;59916;50.914;5.888;2022-07-29T13:29:45;100796.13;;;22.71;52.19
72050;BME280;59916;50.914;5.888;2022-07-29T13:32:11;100797.94;;;22.70;52.08
72050;BME280;59916;50.914;5.888;2022-07-29T13:34:37;100786.47;;;22.70;52.13
72050;BME280;59916;50.914;5.888;2022-07-29T13:37:02;100800.47;;;22.72;52.23
72050;BME280;59916;50.914;5.888;2022-07-29T13:39:28;100798.78;;;22.71;52.20
72050;BME280;59916;50.914;5.888;2022-07-29T13:41:53;100793.63;;;22.69;52.24
72050;BME280;59916;50.914;5.888;2022-07-29T13:44:18;100783.13;;;22.68;51.99
72050;BME280;59916;50.914;5.888;2022-07-29T13:46:44;100793.47;;;22.71;52.04